Terminal Aerodrome Forecast
Issued by NWS Shreveport, LA

Home | Current Version | Previous Version | Text Only | Print | Product List | Glossary On
Versions: 1 2 3 4 5 6 7 8 9 10 11 12 13 14
000
FTUS44 KSHV 271604 AAB
TAFMLU
TAF AMD
KMLU 271604Z 2716/2812 11005KT P6SM OVC040
      TEMPO 2716/2718 BKN005
     FM271800 16006KT P6SM VCTS BKN020 OVC030CB
     FM280000 14007KT P6SM OVC015
     FM280300 17007KT 2SM BR OVC008=

USA.gov is the U.S. government's official web portal to all federal, state and local government web resources and services.